ABOUT US
vACC Philippines is a recognized member of the VATSIM network. We are dedicated to enhancing the online experience of both local and international virtual pilots. Mandated to provide professional and realistic air traffic operations.

vACC Philippines aims to provide the most realistic air traffic system simulation service that is close to the real thing as possible when flying on the VATSIM network.

VATSIM Logo VATSIM South East Asia Logo

METARS

RPLL 251800Z VRB01KT 9999 SCT023 BKN100 25/23 Q1010 RERA TEMPO 9000 -SHRA RMK A2983


RPVM 251800Z 35005KT 9999 FEW020 BKN300 26/23 Q1010 RMK A2983


RPMD 251800Z 34005KT 320V020 9999 FEW016 BKN260 25/25 Q1008 RMK A2977



AIRFIELDS COVERED

Manila Airport
Manila (RPLL)
Subic Bay Airport
Subic Bay (RPLB)
Mactan Airport
Mactan-Cebu (RPVM)
Clark Airport
Clark (RPLC)
Laoag Airport
Laoag (RPLI)

Davao Airport
Davao (RPMD)

Bacolod Airport
Bacolod (RPVB)

Zamboanga Airport
Zamboanga (RPMZ)

General Santos Airport
General Santos (RPMR)

Iloilo Airport
Iloilo (RPVI)

Kalibo Airport
Kalibo (RPVK)

Legazpi Airport
Legazpi (RPLP)

Puerto Princesa Airport
Puerto Princesa (RPVP)